createdAt,value
2024-02-20T00:00:27.835Z,99.99
2024-02-20T00:01:28.025Z,99.99
2024-02-20T00:02:27.938Z,99.99
2024-02-20T00:03:28.040Z,99.99
2024-02-20T00:04:28.192Z,99.99
2024-02-20T00:05:28.207Z,99.99
2024-02-20T00:06:28.380Z,99.99
2024-02-20T00:07:28.418Z,99.99
2024-02-20T00:08:28.458Z,99.99
2024-02-20T00:09:28.528Z,99.99
2024-02-20T00:10:28.605Z,99.99
2024-02-20T00:11:28.660Z,99.99
2024-02-20T00:12:28.727Z,99.99
2024-02-20T00:13:28.912Z,99.99
2024-02-20T00:14:28.931Z,99.99
2024-02-20T00:15:28.975Z,99.99
2024-02-20T00:16:29.106Z,99.99
2024-02-20T00:17:29.121Z,99.99
2024-02-20T00:18:29.338Z,99.99
2024-02-20T00:19:29.412Z,99.99
2024-02-20T00:20:29.352Z,99.99
2024-02-20T00:21:29.403Z,99.99
2024-02-20T00:22:29.540Z,99.99
2024-02-20T00:23:29.587Z,99.99
2024-02-20T00:24:29.697Z,99.99
2024-02-20T00:25:29.814Z,99.99
2024-02-20T00:26:29.815Z,99.99
2024-02-20T00:27:29.927Z,99.99
2024-02-20T00:28:30.025Z,99.99
2024-02-20T00:29:30.279Z,99.99
2024-02-20T00:30:30.260Z,99.99
2024-02-20T00:31:30.497Z,99.99
2024-02-20T00:32:30.302Z,99.99
2024-02-20T00:33:30.367Z,99.99
2024-02-20T00:34:30.567Z,99.99
2024-02-20T00:35:30.530Z,99.99
2024-02-20T00:36:30.646Z,99.99
2024-02-20T00:37:30.783Z,99.99
2024-02-20T00:38:30.772Z,99.99
2024-02-20T00:39:30.861Z,99.99
2024-02-20T00:40:30.951Z,99.99
2024-02-20T00:41:31.023Z,99.99
2024-02-20T00:42:31.170Z,99.99
2024-02-20T00:43:31.259Z,99.99
2024-02-20T00:44:31.260Z,99.99
2024-02-20T00:45:31.322Z,99.99
2024-02-20T00:46:31.475Z,99.99
2024-02-20T00:47:31.485Z,99.99
2024-02-20T00:48:31.693Z,99.99
2024-02-20T00:49:31.690Z,99.99
2024-02-20T00:50:31.730Z,99.99
2024-02-20T00:51:31.810Z,99.99
2024-02-20T00:52:31.873Z,99.99
2024-02-20T00:53:31.933Z,99.99
2024-02-20T00:54:32.057Z,99.99
2024-02-20T00:55:32.288Z,99.99
2024-02-20T00:56:32.223Z,99.99
2024-02-20T00:57:32.294Z,99.99
2024-02-20T00:58:38.515Z,99.99
2024-02-20T00:59:32.582Z,99.99
2024-02-20T01:00:32.704Z,99.99
2024-02-20T01:01:32.963Z,99.99
2024-02-20T01:02:32.750Z,99.99
2024-02-20T01:03:32.844Z,99.99
2024-02-20T01:04:33.004Z,99.99
2024-02-20T01:05:33.053Z,99.99
2024-02-20T01:06:33.052Z,99.99
2024-02-20T01:07:33.335Z,99.99
2024-02-20T01:08:33.249Z,99.99
2024-02-20T01:09:33.353Z,99.99
2024-02-20T01:10:33.633Z,99.99
2024-02-20T01:11:33.501Z,99.99
2024-02-20T01:12:33.619Z,99.99
2024-02-20T01:13:33.658Z,99.99
2024-02-20T01:14:33.744Z,99.99
2024-02-20T01:15:33.761Z,99.99
2024-02-20T01:16:34.239Z,99.99
2024-02-20T01:17:33.960Z,99.99
2024-02-20T01:18:34.087Z,99.99
2024-02-20T01:19:34.358Z,99.99
2024-02-20T01:20:34.427Z,99.99
2024-02-20T01:21:34.378Z,99.99
2024-02-20T01:22:34.461Z,99.99
2024-02-20T01:23:34.486Z,99.99
2024-02-20T01:24:34.594Z,99.99
2024-02-20T01:25:34.689Z,99.99
2024-02-20T01:26:34.816Z,99.99
2024-02-20T01:27:34.872Z,99.99
2024-02-20T01:28:34.994Z,99.99
2024-02-20T01:29:35.096Z,99.99
2024-02-20T01:30:35.170Z,99.99
2024-02-20T01:31:35.252Z,99.99
2024-02-20T01:32:35.350Z,99.99
2024-02-20T01:33:35.459Z,99.99
2024-02-20T01:34:35.639Z,99.99
2024-02-20T01:35:35.499Z,99.99
2024-02-20T01:36:35.673Z,99.99
2024-02-20T01:37:35.939Z,99.99
2024-02-20T01:38:35.718Z,99.99
2024-02-20T01:39:35.857Z,99.99
2024-02-20T01:40:36.133Z,99.99
2024-02-20T01:41:36.169Z,99.99
2024-02-20T01:42:36.160Z,99.99
2024-02-20T01:43:36.458Z,99.99
2024-02-20T01:44:36.293Z,99.99
2024-02-20T01:45:36.365Z,99.99
2024-02-20T01:46:36.496Z,99.99
2024-02-20T01:47:36.662Z,99.99
2024-02-20T01:48:36.947Z,99.99
2024-02-20T01:49:36.912Z,99.99
2024-02-20T01:50:37.036Z,99.99
2024-02-20T01:51:36.881Z,99.99
2024-02-20T01:52:36.937Z,99.99
2024-02-20T01:53:36.900Z,99.99
2024-02-20T01:54:36.958Z,99.99
2024-02-20T01:55:37.174Z,99.99
2024-02-20T01:56:37.186Z,99.99
2024-02-20T01:57:37.206Z,99.99
2024-02-20T01:58:37.331Z,99.99
2024-02-20T01:59:37.465Z,99.99
2024-02-20T02:00:37.601Z,99.99
2024-02-20T02:01:37.882Z,99.99
2024-02-20T02:02:37.825Z,99.99
2024-02-20T02:03:37.918Z,99.99
2024-02-20T02:04:38.042Z,99.99
2024-02-20T02:05:38.053Z,99.99
2024-02-20T02:06:38.169Z,99.99
2024-02-20T02:07:38.176Z,99.99
2024-02-20T02:08:38.197Z,99.99
2024-02-20T02:09:38.285Z,99.99
2024-02-20T02:10:38.390Z,99.99
2024-02-20T02:11:38.537Z,99.99
2024-02-20T02:12:38.609Z,99.99
2024-02-20T02:13:38.647Z,99.99
2024-02-20T02:14:38.644Z,99.99
2024-02-20T02:15:38.747Z,99.99
2024-02-20T02:16:38.856Z,99.99
2024-02-20T02:17:38.902Z,99.99
2024-02-20T02:18:39.120Z,99.99
2024-02-20T02:19:39.055Z,99.99
2024-02-20T02:20:39.096Z,99.99
2024-02-20T02:21:39.285Z,99.99
2024-02-20T02:22:39.286Z,99.99
2024-02-20T02:23:39.296Z,99.99
2024-02-20T02:24:39.409Z,99.99
2024-02-20T02:25:39.561Z,99.99
2024-02-20T02:26:39.646Z,99.99
2024-02-20T02:27:39.710Z,99.99
2024-02-20T02:28:39.959Z,99.99
2024-02-20T02:29:39.978Z,99.99
2024-02-20T02:30:40.052Z,99.99
2024-02-20T02:31:40.077Z,99.99
2024-02-20T02:32:40.245Z,99.99
2024-02-20T02:33:40.241Z,99.99
2024-02-20T02:34:40.416Z,99.99
2024-02-20T02:35:40.602Z,99.99
2024-02-20T02:36:40.513Z,99.99
2024-02-20T02:37:40.565Z,99.99
2024-02-20T02:38:40.650Z,99.99
2024-02-20T02:39:40.832Z,99.99
2024-02-20T02:40:41.011Z,99.99
2024-02-20T02:41:40.978Z,99.99
2024-02-20T02:42:40.996Z,99.99
2024-02-20T02:43:41.161Z,99.99
2024-02-20T02:44:41.153Z,99.99
2024-02-20T02:45:41.366Z,99.99
2024-02-20T02:46:41.390Z,99.99
2024-02-20T02:47:41.508Z,99.99
2024-02-20T02:48:41.556Z,99.99
2024-02-20T02:49:41.709Z,99.99
2024-02-20T02:50:41.696Z,99.99
2024-02-20T02:51:41.820Z,99.99
2024-02-20T02:52:41.944Z,99.99
2024-02-20T02:53:42.046Z,99.99
2024-02-20T02:54:42.034Z,99.99
2024-02-20T02:55:42.239Z,99.99
2024-02-20T02:56:42.195Z,99.99
2024-02-20T02:57:42.422Z,99.99
2024-02-20T02:58:42.415Z,99.99
2024-02-20T02:59:42.532Z,99.99
2024-02-20T03:00:42.616Z,99.99
2024-02-20T03:01:42.824Z,99.99
2024-02-20T03:02:42.893Z,99.99
2024-02-20T03:03:42.961Z,99.99
2024-02-20T03:04:43.069Z,99.99
2024-02-20T03:05:43.137Z,99.99
2024-02-20T03:06:43.093Z,99.99
2024-02-20T03:07:43.310Z,99.99
2024-02-20T03:08:43.232Z,99.99
2024-02-20T03:09:43.308Z,99.99
2024-02-20T03:10:43.646Z,99.99
2024-02-20T03:11:43.509Z,99.99
2024-02-20T03:12:43.630Z,99.99
2024-02-20T03:13:43.724Z,99.99
2024-02-20T03:14:43.933Z,99.99
2024-02-20T03:15:43.898Z,99.99
2024-02-20T03:16:43.956Z,99.99
2024-02-20T03:17:44.103Z,99.99
2024-02-20T03:18:44.248Z,99.99
2024-02-20T03:19:44.147Z,99.99
2024-02-20T03:20:44.225Z,99.99
2024-02-20T03:21:44.251Z,99.99
2024-02-20T03:22:44.347Z,99.99
2024-02-20T03:23:44.453Z,99.99
2024-02-20T03:24:44.549Z,99.99
2024-02-20T03:25:44.643Z,99.99
2024-02-20T03:26:44.601Z,99.99
2024-02-20T03:27:44.775Z,99.99
2024-02-20T03:28:44.878Z,99.99
2024-02-20T03:29:44.903Z,99.99
2024-02-20T03:30:44.956Z,99.99
2024-02-20T03:31:45.050Z,99.99
2024-02-20T03:32:45.210Z,99.99
2024-02-20T03:33:45.200Z,99.99
2024-02-20T03:34:45.356Z,99.99
2024-02-20T03:35:45.448Z,99.99
2024-02-20T03:36:45.469Z,99.99
2024-02-20T03:37:45.568Z,99.99
2024-02-20T03:38:45.661Z,99.99
2024-02-20T03:39:45.698Z,99.99
2024-02-20T03:40:45.809Z,99.99
2024-02-20T03:41:45.890Z,99.99
2024-02-20T03:42:45.919Z,99.99
2024-02-20T03:43:46.091Z,99.99
2024-02-20T03:44:46.205Z,99.99
2024-02-20T03:45:46.237Z,99.99
2024-02-20T03:46:46.310Z,99.99
2024-02-20T03:47:46.484Z,99.99
2024-02-20T03:48:46.574Z,99.99
2024-02-20T03:49:46.738Z,99.99
2024-02-20T03:50:46.591Z,99.99
2024-02-20T03:51:46.717Z,99.99
2024-02-20T03:52:46.812Z,99.99
2024-02-20T03:53:46.861Z,99.99
2024-02-20T03:54:46.909Z,99.99
2024-02-20T03:55:47.016Z,99.99
2024-02-20T03:56:47.130Z,99.99
2024-02-20T03:57:47.108Z,99.99
2024-02-20T03:58:47.361Z,99.99
2024-02-20T03:59:47.389Z,99.99
2024-02-20T04:00:47.440Z,99.99
2024-02-20T04:01:47.623Z,99.99
2024-02-20T04:02:47.606Z,99.99
2024-02-20T04:03:47.731Z,99.99
2024-02-20T04:04:47.731Z,99.99
2024-02-20T04:05:47.771Z,99.99
2024-02-20T04:06:47.962Z,99.99
2024-02-20T04:07:47.930Z,99.99
2024-02-20T04:08:48.058Z,99.99
2024-02-20T04:09:48.206Z,99.99
2024-02-20T04:10:48.406Z,99.99
2024-02-20T04:11:48.316Z,99.99
2024-02-20T04:12:48.403Z,99.99
2024-02-20T04:13:48.477Z,99.99
2024-02-20T04:14:48.547Z,99.99
2024-02-20T04:15:48.665Z,99.99
2024-02-20T04:16:48.764Z,99.99
2024-02-20T04:17:48.880Z,99.99
2024-02-20T04:18:48.961Z,99.99
2024-02-20T04:19:49.005Z,99.99
2024-02-20T04:20:48.984Z,99.99
2024-02-20T04:21:49.052Z,99.99
2024-02-20T04:22:49.194Z,99.99
2024-02-20T04:23:49.271Z,99.99
2024-02-20T04:24:49.359Z,99.99
2024-02-20T04:25:49.514Z,99.99
2024-02-20T04:26:49.564Z,99.99
2024-02-20T04:27:49.588Z,99.99
2024-02-20T04:28:49.677Z,99.99
2024-02-20T04:29:49.805Z,99.99
2024-02-20T04:30:49.875Z,99.99
2024-02-20T04:31:49.862Z,99.99
2024-02-20T04:32:49.991Z,99.99
2024-02-20T04:33:50.115Z,99.99
2024-02-20T04:34:50.215Z,99.99
2024-02-20T04:35:50.223Z,99.99
2024-02-20T04:36:50.344Z,99.99
2024-02-20T04:37:50.490Z,99.99
2024-02-20T04:38:50.577Z,99.99
2024-02-20T04:39:50.585Z,99.99
2024-02-20T04:40:50.691Z,99.99
2024-02-20T04:41:50.780Z,99.99
2024-02-20T04:42:50.869Z,99.99
2024-02-20T04:43:50.967Z,99.99
2024-02-20T04:44:51.024Z,99.99
2024-02-20T04:45:51.115Z,99.99
2024-02-20T04:46:51.097Z,99.99
2024-02-20T04:47:51.257Z,99.99
2024-02-20T04:48:51.370Z,99.99
2024-02-20T04:49:51.422Z,99.99
2024-02-20T04:50:51.443Z,99.99
2024-02-20T04:51:51.545Z,99.99
2024-02-20T04:52:51.579Z,99.99
2024-02-20T04:53:51.660Z,99.99
2024-02-20T04:54:51.752Z,99.99
2024-02-20T04:55:51.827Z,99.99
2024-02-20T04:56:51.877Z,99.99
2024-02-20T04:57:51.968Z,99.99
2024-02-20T04:58:52.009Z,99.99
2024-02-20T04:59:52.131Z,99.99
2024-02-20T05:00:52.438Z,99.99
2024-02-20T05:01:52.513Z,99.99
2024-02-20T05:02:52.396Z,99.99
2024-02-20T05:03:52.544Z,99.99
2024-02-20T05:04:56.539Z,99.99
2024-02-20T05:05:52.608Z,99.99
2024-02-20T05:06:52.737Z,99.99
2024-02-20T05:07:52.815Z,99.99
2024-02-20T05:08:52.888Z,99.99
2024-02-20T05:09:52.951Z,99.99
2024-02-20T05:10:53.123Z,99.99
2024-02-20T05:11:53.087Z,99.99
2024-02-20T05:12:53.187Z,99.99
2024-02-20T05:13:53.272Z,99.99
2024-02-20T05:14:53.329Z,99.99
2024-02-20T05:15:53.543Z,99.99
2024-02-20T05:16:53.477Z,99.99
2024-02-20T05:17:53.656Z,99.99
2024-02-20T05:18:53.768Z,99.99
2024-02-20T05:19:53.838Z,99.99
2024-02-20T05:20:53.827Z,99.99
2024-02-20T05:21:54.011Z,99.99
2024-02-20T05:22:54.050Z,99.99
2024-02-20T05:23:54.111Z,99.99
2024-02-20T05:24:54.152Z,99.99
2024-02-20T05:25:54.239Z,99.99
2024-02-20T05:26:54.322Z,99.99
2024-02-20T05:27:54.443Z,99.99
2024-02-20T05:28:54.484Z,99.99
2024-02-20T05:29:54.564Z,99.99
2024-02-20T05:30:54.623Z,99.99
2024-02-20T05:31:54.729Z,99.99
2024-02-20T05:32:54.885Z,99.99
2024-02-20T05:33:55.004Z,99.99
2024-02-20T05:34:55.100Z,99.99
2024-02-20T05:35:55.032Z,99.99
2024-02-20T05:36:55.222Z,99.99
2024-02-20T05:37:55.199Z,99.99
2024-02-20T05:38:55.330Z,99.99
2024-02-20T05:39:55.492Z,99.99
2024-02-20T05:40:55.452Z,99.99
2024-02-20T05:41:55.609Z,99.99
2024-02-20T05:42:55.678Z,99.99
2024-02-20T05:43:55.763Z,99.99
2024-02-20T05:44:55.810Z,99.99
2024-02-20T05:45:55.989Z,99.99
2024-02-20T05:46:56.044Z,99.99
2024-02-20T05:47:56.238Z,99.99
2024-02-20T05:48:56.511Z,99.99
2024-02-20T05:49:56.330Z,99.99
2024-02-20T05:50:56.399Z,99.99
2024-02-20T05:51:56.555Z,99.99
2024-02-20T05:52:56.579Z,99.99
2024-02-20T05:53:56.602Z,99.99
2024-02-20T05:54:56.699Z,99.99
2024-02-20T05:55:56.797Z,99.99
2024-02-20T05:56:56.825Z,99.99
2024-02-20T05:57:56.946Z,99.99
2024-02-20T05:58:56.982Z,99.99
2024-02-20T05:59:57.032Z,99.99
2024-02-20T06:00:57.300Z,99.99
2024-02-20T06:01:57.357Z,99.99
2024-02-20T06:02:57.237Z,99.99
2024-02-20T06:03:57.485Z,99.99
2024-02-20T06:04:57.466Z,99.99
2024-02-20T06:05:57.568Z,99.99
2024-02-20T06:06:57.687Z,99.99
2024-02-20T06:07:57.756Z,99.99
2024-02-20T06:08:57.738Z,99.99
2024-02-20T06:09:57.841Z,99.99
2024-02-20T06:10:58.041Z,99.99
2024-02-20T06:11:58.054Z,99.99
2024-02-20T06:12:58.111Z,99.99
2024-02-20T06:13:58.197Z,99.99
2024-02-20T06:14:58.228Z,99.99
2024-02-20T06:15:58.322Z,99.99
2024-02-20T06:16:58.395Z,99.99
2024-02-20T06:17:58.544Z,99.99
2024-02-20T06:18:58.600Z,99.99
2024-02-20T06:19:58.641Z,99.99
2024-02-20T06:20:58.709Z,99.99
2024-02-20T06:21:58.856Z,99.99
2024-02-20T06:22:58.899Z,99.99
2024-02-20T06:23:58.945Z,99.99
2024-02-20T06:24:59.031Z,99.99
2024-02-20T06:25:59.121Z,99.99
2024-02-20T06:26:59.145Z,99.99
2024-02-20T06:27:59.300Z,99.99
2024-02-20T06:28:59.331Z,99.99
2024-02-20T06:29:59.387Z,99.99
2024-02-20T06:30:59.552Z,99.99
2024-02-20T06:31:59.712Z,99.99
2024-02-20T06:32:59.780Z,99.99
2024-02-20T06:33:59.968Z,99.99
2024-02-20T06:34:59.819Z,99.99
2024-02-20T06:35:59.864Z,99.99
2024-02-20T06:37:00.011Z,99.99
2024-02-20T06:37:59.990Z,99.99
2024-02-20T06:39:00.070Z,99.99
2024-02-20T06:40:00.368Z,99.99
2024-02-20T06:41:00.252Z,99.99
2024-02-20T06:42:00.324Z,99.99
2024-02-20T06:43:00.423Z,99.99
2024-02-20T06:44:00.492Z,99.99
2024-02-20T06:45:00.581Z,99.99
2024-02-20T06:46:00.739Z,99.99
2024-02-20T06:47:00.764Z,99.99
2024-02-20T06:48:00.971Z,99.99
2024-02-20T06:49:01.040Z,99.99
2024-02-20T06:50:01.046Z,99.99
2024-02-20T06:51:01.057Z,99.99
2024-02-20T06:52:01.246Z,99.99
2024-02-20T06:53:01.309Z,99.99
2024-02-20T06:54:01.335Z,99.99
2024-02-20T06:55:01.507Z,99.99
2024-02-20T06:56:01.498Z,99.99
2024-02-20T06:57:01.619Z,99.99
2024-02-20T06:58:01.697Z,99.99
2024-02-20T06:59:01.753Z,99.99
2024-02-20T07:00:01.855Z,99.99
2024-02-20T07:01:01.984Z,99.99
2024-02-20T07:02:08.220Z,99.99
2024-02-20T07:03:02.136Z,99.99
2024-02-20T07:04:02.257Z,99.99
2024-02-20T07:05:02.428Z,99.99
2024-02-20T07:06:02.567Z,99.99
2024-02-20T07:07:02.541Z,99.99
2024-02-20T07:08:02.518Z,99.99
2024-02-20T07:09:02.714Z,99.99
2024-02-20T07:10:02.728Z,99.99
2024-02-20T07:11:02.975Z,99.99
2024-02-20T07:12:02.854Z,99.99
2024-02-20T07:13:03.022Z,99.99
2024-02-20T07:14:03.089Z,99.99
2024-02-20T07:15:03.199Z,99.99
2024-02-20T07:16:03.234Z,99.99
2024-02-20T07:17:03.302Z,99.99
2024-02-20T07:18:03.389Z,99.99
2024-02-20T07:19:03.509Z,99.99
2024-02-20T07:20:03.571Z,99.99
2024-02-20T07:21:03.573Z,99.99
2024-02-20T07:22:03.659Z,99.99
2024-02-20T07:23:03.803Z,99.99
2024-02-20T07:24:03.826Z,99.99
2024-02-20T07:25:03.899Z,99.99
2024-02-20T07:26:03.963Z,99.99
2024-02-20T07:27:04.016Z,99.99
2024-02-20T07:28:04.161Z,99.99
2024-02-20T07:29:04.200Z,99.99
2024-02-20T07:30:04.340Z,99.99
2024-02-20T07:31:04.446Z,99.99
2024-02-20T07:32:04.422Z,99.99
2024-02-20T07:33:04.842Z,99.99
2024-02-20T07:34:09.768Z,99.99
2024-02-20T07:35:05.149Z,99.99
2024-02-20T07:36:05.012Z,99.99
2024-02-20T07:37:04.931Z,99.99
2024-02-20T07:38:04.993Z,99.99
2024-02-20T07:39:04.976Z,99.99
2024-02-20T07:40:05.119Z,99.99
2024-02-20T07:41:05.285Z,99.99
2024-02-20T07:42:05.281Z,99.99
2024-02-20T07:43:05.357Z,99.99
2024-02-20T07:44:05.341Z,99.99
2024-02-20T07:45:05.475Z,99.99
2024-02-20T07:46:05.659Z,99.99
2024-02-20T07:47:05.677Z,99.99
2024-02-20T07:48:05.833Z,99.99
2024-02-20T07:49:05.868Z,99.99
2024-02-20T07:50:06.578Z,99.99
2024-02-20T07:51:06.011Z,99.99
2024-02-20T07:52:06.093Z,99.99
2024-02-20T07:53:06.081Z,99.99
2024-02-20T07:54:06.146Z,99.99
2024-02-20T07:55:06.267Z,99.99
2024-02-20T07:56:06.349Z,99.99
2024-02-20T07:57:06.418Z,99.99
2024-02-20T07:58:06.547Z,99.99
2024-02-20T07:59:06.614Z,99.99
2024-02-20T08:00:06.924Z,99.99
2024-02-20T08:01:06.763Z,99.99
2024-02-20T08:02:06.888Z,99.99
2024-02-20T08:03:06.985Z,99.99
2024-02-20T08:04:07.179Z,99.99
2024-02-20T08:05:07.439Z,99.99
2024-02-20T08:06:07.284Z,99.99
2024-02-20T08:07:07.419Z,99.99
2024-02-20T08:08:07.366Z,99.99
2024-02-20T08:09:07.386Z,99.99
2024-02-20T08:10:07.672Z,99.99
2024-02-20T08:11:07.664Z,99.99
2024-02-20T08:12:07.689Z,99.99
2024-02-20T08:13:07.778Z,99.99
2024-02-20T08:14:07.803Z,99.99
2024-02-20T08:15:07.906Z,99.99
2024-02-20T08:16:08.012Z,99.99
2024-02-20T08:17:08.071Z,99.99
2024-02-20T08:18:08.291Z,99.99
2024-02-20T08:19:08.418Z,99.99
2024-02-20T08:20:08.411Z,99.99
2024-02-20T08:21:08.402Z,99.99
2024-02-20T08:22:08.616Z,99.99
2024-02-20T08:23:08.588Z,99.99
2024-02-20T08:24:08.675Z,99.99
2024-02-20T08:25:08.934Z,99.99
2024-02-20T08:26:08.839Z,99.99
2024-02-20T08:27:08.940Z,99.99
2024-02-20T08:28:09.964Z,99.99
2024-02-20T08:29:09.078Z,99.99
2024-02-20T08:30:09.221Z,99.99
2024-02-20T08:31:09.305Z,99.99
2024-02-20T08:32:09.505Z,99.99
2024-02-20T08:33:09.519Z,99.99
2024-02-20T08:34:11.598Z,99.99
2024-02-20T08:35:09.694Z,99.99
2024-02-20T08:36:09.759Z,99.99
2024-02-20T08:37:09.819Z,99.99
2024-02-20T08:38:09.893Z,99.99
2024-02-20T08:39:09.940Z,99.99
2024-02-20T08:40:10.111Z,99.99
2024-02-20T08:41:10.113Z,99.99
2024-02-20T08:42:10.231Z,99.99
2024-02-20T08:43:10.365Z,99.99
2024-02-20T08:44:10.382Z,99.99
2024-02-20T08:45:10.470Z,99.99
2024-02-20T08:46:10.613Z,99.99
2024-02-20T08:47:10.650Z,99.99
2024-02-20T08:48:10.795Z,99.99
2024-02-20T08:49:10.876Z,99.99
2024-02-20T08:50:11.071Z,99.99
2024-02-20T08:51:10.958Z,99.99
2024-02-20T08:52:11.054Z,99.99
2024-02-20T08:53:11.099Z,99.99
2024-02-20T08:54:11.157Z,99.99
2024-02-20T08:55:11.313Z,99.99
2024-02-20T08:56:11.380Z,99.99
2024-02-20T08:57:11.439Z,99.99
2024-02-20T08:58:11.572Z,99.99
2024-02-20T08:59:11.608Z,99.99
2024-02-20T09:00:11.661Z,99.99
2024-02-20T09:01:11.867Z,99.99
2024-02-20T09:02:12.012Z,99.99
2024-02-20T09:03:11.947Z,99.99
2024-02-20T09:04:12.089Z,99.99
2024-02-20T09:05:12.234Z,99.99
2024-02-20T09:06:12.187Z,99.99
2024-02-20T09:07:12.508Z,99.99
2024-02-20T09:08:12.384Z,99.99
2024-02-20T09:09:12.436Z,99.99
2024-02-20T09:10:12.519Z,99.99
2024-02-20T09:11:12.589Z,99.99
2024-02-20T09:12:12.650Z,99.99
2024-02-20T09:13:12.917Z,99.99
2024-02-20T09:14:12.906Z,99.99
2024-02-20T09:15:13.217Z,99.99
2024-02-20T09:16:13.207Z,99.99
2024-02-20T09:17:13.081Z,99.99
2024-02-20T09:18:13.486Z,99.99
2024-02-20T09:19:13.305Z,99.99
2024-02-20T09:20:13.459Z,99.99
2024-02-20T09:21:13.395Z,99.99
2024-02-20T09:22:13.502Z,99.99
2024-02-20T09:23:13.559Z,99.99
2024-02-20T09:24:13.570Z,99.99
2024-02-20T09:25:13.728Z,99.99
2024-02-20T09:26:13.788Z,99.99
2024-02-20T09:27:13.863Z,99.99
2024-02-20T09:28:14.106Z,99.99
2024-02-20T09:29:14.147Z,99.99
2024-02-20T09:30:14.252Z,99.99
2024-02-20T09:31:14.432Z,99.99
2024-02-20T09:32:14.350Z,99.99
2024-02-20T09:33:14.711Z,99.99
2024-02-20T09:34:14.567Z,99.99
2024-02-20T09:35:14.864Z,99.99
2024-02-20T09:36:14.602Z,99.99
2024-02-20T09:37:14.835Z,99.99
2024-02-20T09:38:14.824Z,99.99
2024-02-20T09:39:14.926Z,99.99
2024-02-20T09:40:15.025Z,99.99
2024-02-20T09:41:15.044Z,99.99
2024-02-20T09:42:15.151Z,99.99
2024-02-20T09:43:15.392Z,99.99
2024-02-20T09:44:15.284Z,99.17
2024-02-20T09:45:15.401Z,99.79
2024-02-20T09:46:15.520Z,99.48
2024-02-20T09:47:15.534Z,99.54
2024-02-20T09:48:15.797Z,98.82
2024-02-20T09:49:15.845Z,98.61
2024-02-20T09:50:15.880Z,97.89
2024-02-20T09:51:15.973Z,98.25
2024-02-20T09:52:16.010Z,98.45
2024-02-20T09:53:18.565Z,98.55
2024-02-20T09:54:16.155Z,98.45
2024-02-20T09:55:16.247Z,98.86
2024-02-20T09:56:16.343Z,98.45
2024-02-20T09:57:16.400Z,98.70
2024-02-20T09:58:16.562Z,98.70
2024-02-20T09:59:16.538Z,99.38
2024-02-20T10:00:16.648Z,98.50
2024-02-20T10:01:16.905Z,98.50
2024-02-20T10:02:16.818Z,98.91
2024-02-20T10:03:16.872Z,98.50
2024-02-20T10:04:16.984Z,99.11
2024-02-20T10:05:17.486Z,99.17
2024-02-20T10:06:17.166Z,99.68
2024-02-20T10:07:17.363Z,99.33
2024-02-20T10:08:17.336Z,97.89
2024-02-20T10:09:17.343Z,97.89
2024-02-20T10:10:17.814Z,97.38
2024-02-20T10:11:18.211Z,97.33
2024-02-20T10:12:18.182Z,98.05
2024-02-20T10:13:17.862Z,96.41
2024-02-20T10:14:17.786Z,97.03
2024-02-20T10:15:17.875Z,96.72
2024-02-20T10:16:18.391Z,96.72
2024-02-20T10:17:18.213Z,97.13
2024-02-20T10:18:18.184Z,96.51
2024-02-20T10:19:18.420Z,96.92
2024-02-20T10:20:18.445Z,96.20
2024-02-20T10:21:18.381Z,96.51
2024-02-20T10:22:18.539Z,97.03
2024-02-20T10:23:18.550Z,95.90
2024-02-20T10:24:24.718Z,96.00
2024-02-20T10:25:18.781Z,95.49
2024-02-20T10:26:18.860Z,96.47
2024-02-20T10:27:19.001Z,95.86
2024-02-20T10:28:19.124Z,95.34
2024-02-20T10:29:19.055Z,95.54
2024-02-20T10:30:19.156Z,95.44
2024-02-20T10:31:19.321Z,95.54
2024-02-20T10:32:19.259Z,95.14
2024-02-20T10:33:19.464Z,95.95
2024-02-20T10:34:19.553Z,95.86
2024-02-20T10:35:19.654Z,94.93
2024-02-20T10:36:19.693Z,94.83
2024-02-20T10:37:19.771Z,95.65
2024-02-20T10:38:19.904Z,94.21
2024-02-20T10:39:19.966Z,94.73
2024-02-20T10:40:27.244Z,94.42
2024-02-20T10:41:20.186Z,94.21
2024-02-20T10:42:20.210Z,94.62
2024-02-20T10:43:20.342Z,94.62
2024-02-20T10:44:22.871Z,94.52
2024-02-20T10:45:20.480Z,94.62
2024-02-20T10:46:20.598Z,93.49
2024-02-20T10:47:20.632Z,93.85
2024-02-20T10:48:20.798Z,94.32
2024-02-20T10:49:21.013Z,94.11
2024-02-20T10:50:20.933Z,94.32
2024-02-20T10:51:21.002Z,94.83
2024-02-20T10:52:21.045Z,94.21
2024-02-20T10:53:21.104Z,94.07
2024-02-20T10:54:21.216Z,92.88
2024-02-20T10:55:27.939Z,92.98
2024-02-20T10:56:21.467Z,92.68
2024-02-20T10:57:21.438Z,92.98
2024-02-20T10:58:21.722Z,93.39
2024-02-20T10:59:21.646Z,93.96
2024-02-20T11:00:21.740Z,92.94
2024-02-20T11:01:21.862Z,93.55
2024-02-20T11:02:22.150Z,93.25
2024-02-20T11:03:22.024Z,92.63
2024-02-20T11:04:22.128Z,92.74
2024-02-20T11:05:22.217Z,93.45
2024-02-20T11:06:22.431Z,93.04
2024-02-20T11:07:22.493Z,92.02
2024-02-20T11:08:22.471Z,91.71
2024-02-20T11:09:22.514Z,92.12
2024-02-20T11:10:22.755Z,91.82
2024-02-20T11:11:22.674Z,92.53
2024-02-20T11:12:22.776Z,93.04
2024-02-20T11:13:22.893Z,92.43
2024-02-20T11:14:22.868Z,92.63
2024-02-20T11:15:23.047Z,92.53
2024-02-20T11:16:29.860Z,92.53
2024-02-20T11:17:29.040Z,92.02
2024-02-20T11:18:23.443Z,92.12
2024-02-20T11:19:23.420Z,92.22
2024-02-20T11:20:23.566Z,92.43
2024-02-20T11:21:23.607Z,92.53
2024-02-20T11:22:23.730Z,92.63
2024-02-20T11:23:23.702Z,93.62
2024-02-20T11:24:23.734Z,92.08
2024-02-20T11:25:23.854Z,91.31
2024-02-20T11:26:23.898Z,90.23
2024-02-20T11:27:24.108Z,90.23
2024-02-20T11:28:24.194Z,89.92
2024-02-20T11:29:24.218Z,90.30
2024-02-20T11:30:24.273Z,90.34
2024-02-20T11:31:24.444Z,90.09
2024-02-20T11:32:24.466Z,89.98
2024-02-20T11:33:24.613Z,88.80
2024-02-20T11:34:24.644Z,89.92
2024-02-20T11:35:25.054Z,89.62
2024-02-20T11:36:24.738Z,89.51
2024-02-20T11:37:24.926Z,89.51
2024-02-20T11:38:25.027Z,89.31
2024-02-20T11:39:25.020Z,88.65
2024-02-20T11:40:25.176Z,89.06
2024-02-20T11:41:25.329Z,88.62
2024-02-20T11:42:25.370Z,88.62
2024-02-20T11:43:25.475Z,89.84
2024-02-20T11:44:25.399Z,88.06
2024-02-20T11:45:25.643Z,87.24
2024-02-20T11:46:25.600Z,87.00
2024-02-20T11:47:25.662Z,86.43
2024-02-20T11:48:25.864Z,86.49
2024-02-20T11:49:25.824Z,86.59
2024-02-20T11:50:25.828Z,86.49
2024-02-20T11:51:25.942Z,86.12
2024-02-20T11:52:26.083Z,86.69
2024-02-20T11:53:26.429Z,86.08
2024-02-20T11:54:26.284Z,85.57
2024-02-20T11:55:26.337Z,86.32
2024-02-20T11:56:26.355Z,87.35
2024-02-20T11:57:26.449Z,86.63
2024-02-20T11:58:29.036Z,86.02
2024-02-20T11:59:26.594Z,86.43
2024-02-20T12:00:26.780Z,87.08
2024-02-20T12:01:26.846Z,87.38
2024-02-20T12:02:26.730Z,87.59
2024-02-20T12:03:27.010Z,88.51
2024-02-20T12:04:27.193Z,88.20
2024-02-20T12:05:27.170Z,88.20
2024-02-20T12:06:27.248Z,87.38
2024-02-20T12:07:27.302Z,88.00
2024-02-20T12:08:27.440Z,88.14
2024-02-20T12:09:27.380Z,88.71
2024-02-20T12:10:29.440Z,88.00
2024-02-20T12:11:27.549Z,88.82
2024-02-20T12:12:27.621Z,88.20
2024-02-20T12:13:27.717Z,88.35
2024-02-20T12:14:27.799Z,89.03
2024-02-20T12:15:27.897Z,88.31
2024-02-20T12:16:28.615Z,87.90
2024-02-20T12:17:28.096Z,88.56
2024-02-20T12:18:28.138Z,88.24
2024-02-20T12:19:29.867Z,88.35
2024-02-20T12:20:28.381Z,88.56
2024-02-20T12:21:28.415Z,88.76
2024-02-20T12:22:28.509Z,88.24
2024-02-20T12:23:28.617Z,87.84
2024-02-20T12:24:28.641Z,87.94
2024-02-20T12:25:28.743Z,88.04
2024-02-20T12:26:28.951Z,88.76
2024-02-20T12:27:28.908Z,88.35
2024-02-20T12:28:29.004Z,87.98
2024-02-20T12:29:29.123Z,87.77
2024-02-20T12:30:29.140Z,87.88
2024-02-20T12:31:29.215Z,88.80
2024-02-20T12:32:29.301Z,88.90
2024-02-20T12:33:29.446Z,88.18
2024-02-20T12:34:34.944Z,88.18
2024-02-20T12:35:29.542Z,88.59
2024-02-20T12:36:29.598Z,89.31
2024-02-20T12:37:29.809Z,89.92
2024-02-20T12:38:29.805Z,88.80
2024-02-20T12:39:29.880Z,88.49
2024-02-20T12:40:29.959Z,88.18
2024-02-20T12:41:30.314Z,88.08
2024-02-20T12:42:30.300Z,88.49
2024-02-20T12:43:30.400Z,88.49
2024-02-20T12:44:30.364Z,88.90
2024-02-20T12:45:30.385Z,88.80
2024-02-20T12:46:30.530Z,89.11
2024-02-20T12:47:30.639Z,89.31
2024-02-20T12:48:30.745Z,89.06
2024-02-20T12:49:30.916Z,88.76
2024-02-20T12:50:30.853Z,88.35
2024-02-20T12:51:30.901Z,87.73
2024-02-20T12:52:31.067Z,87.53
2024-02-20T12:53:31.066Z,87.49